Time;durP1;ratioP1;P1;durP2;ratioP2;P2;SDS_P1;SDS_P2;PMS_P1;PMS_P2;Temp;Humidity;BMP_temperature;BMP_pressure;BME280_temperature;BME280_humidity;BME280_pressure;Samples;Min_cycle;Max_cycle;Signal;HPM_P1;HPM_P2
2021/11/14 00:00:36;;;;;;;33.30;26.17;;;8.90;99.90;;;;;;5116460;28;20450;-68
2021/11/14 00:03:04;;;;;;;37.10;27.50;;;8.90;99.90;;;;;;5116598;28;20501;-69
2021/11/14 00:05:31;;;;;;;36.30;24.60;;;8.90;99.90;;;;;;5116062;28;20483;-67
2021/11/14 00:07:58;;;;;;;41.33;25.70;;;9.00;99.90;;;;;;5116598;28;20456;-68
2021/11/14 00:10:26;;;;;;;33.13;25.97;;;9.00;99.90;;;;;;5116550;28;20482;-68
2021/11/14 00:12:56;;;;;;;44.47;25.17;;;9.00;99.90;;;;;;5116129;28;20825;-68
2021/11/14 00:15:23;;;;;;;37.07;28.50;;;9.00;99.90;;;;;;5116019;28;20457;-68
2021/11/14 00:17:50;;;;;;;38.33;26.60;;;9.00;99.90;;;;;;5116204;27;20460;-68
2021/11/14 00:20:17;;;;;;;38.97;27.23;;;9.00;99.90;;;;;;5115991;28;20449;-68
2021/11/14 00:22:44;;;;;;;35.33;25.50;;;9.00;99.90;;;;;;5115688;28;20446;-68
2021/11/14 00:25:17;;;;;;;41.27;26.73;;;9.00;99.90;;;;;;5115800;28;20913;-68
2021/11/14 00:27:44;;;;;;;34.27;25.37;;;9.00;99.90;;;;;;5116366;28;20437;-68
2021/11/14 00:30:12;;;;;;;30.40;23.97;;;9.00;99.90;;;;;;5116401;28;20818;-68
2021/11/14 00:32:39;;;;;;;36.80;24.73;;;8.90;99.90;;;;;;5116159;28;20577;-68
2021/11/14 00:35:07;;;;;;;33.33;24.03;;;8.90;99.90;;;;;;5116321;28;20470;-68
2021/11/14 00:37:36;;;;;;;31.97;23.20;;;8.90;99.90;;;;;;5115947;28;20460;-68
2021/11/14 00:40:04;;;;;;;28.80;21.17;;;8.90;99.90;;;;;;5116081;28;20519;-68
2021/11/14 00:42:31;;;;;;;30.60;20.63;;;8.90;99.90;;;;;;5115916;28;20464;-68
2021/11/14 00:44:57;;;;;;;29.00;20.10;;;8.90;99.90;;;;;;5115650;28;20949;-69
2021/11/14 00:47:28;;;;;;;33.50;22.80;;;8.90;99.90;;;;;;5115440;27;20471;-68
2021/11/14 00:49:55;;;;;;;26.57;21.43;;;8.90;99.90;;;;;;5115423;28;20765;-68
2021/11/14 00:52:22;;;;;;;29.80;20.37;;;8.90;99.90;;;;;;5115207;28;20468;-68
2021/11/14 00:54:49;;;;;;;25.63;20.23;;;8.90;99.90;;;;;;5115720;28;20452;-68
2021/11/14 00:57:15;;;;;;;28.10;20.47;;;8.90;99.90;;;;;;5115313;28;20456;-68
2021/11/14 00:59:42;;;;;;;30.97;22.50;;;8.90;99.90;;;;;;5115169;28;20452;-69
2021/11/14 01:02:09;;;;;;;28.70;20.10;;;8.90;99.90;;;;;;5115446;28;20453;-68
2021/11/14 01:04:37;;;;;;;22.37;19.00;;;8.80;99.90;;;;;;5115179;28;20472;-69
2021/11/14 01:07:04;;;;;;;27.17;18.87;;;8.80;99.90;;;;;;5115501;28;20464;-69
2021/11/14 01:09:31;;;;;;;28.50;22.87;;;8.80;99.90;;;;;;5115454;28;20493;-69
2021/11/14 01:11:57;;;;;;;30.67;21.57;;;8.70;99.90;;;;;;5115218;28;20458;-69
2021/11/14 01:14:25;;;;;;;31.67;21.83;;;8.70;99.90;;;;;;5115455;28;20560;-69
2021/11/14 01:16:52;;;;;;;30.10;21.30;;;8.70;99.90;;;;;;5114910;28;20494;-69
2021/11/14 01:19:19;;;;;;;30.13;21.40;;;8.70;99.90;;;;;;5115162;28;20452;-69
2021/11/14 01:21:47;;;;;;;36.70;22.37;;;8.70;99.90;;;;;;5114902;28;20487;-69
2021/11/14 01:24:15;;;;;;;31.50;22.37;;;8.70;99.90;;;;;;5115795;28;20460;-69
2021/11/14 01:26:42;;;;;;;29.53;22.00;;;8.60;99.90;;;;;;5115227;28;20562;-69
2021/11/14 01:29:09;;;;;;;30.90;23.60;;;8.60;99.90;;;;;;5115463;28;20453;-69
2021/11/14 01:31:36;;;;;;;30.40;20.87;;;8.60;99.90;;;;;;5115246;28;20477;-68
2021/11/14 01:34:03;;;;;;;29.80;21.10;;;8.60;99.90;;;;;;5114786;28;20453;-68
2021/11/14 01:36:32;;;;;;;31.93;21.37;;;8.60;99.90;;;;;;5114575;28;20467;-68
2021/11/14 01:39:01;;;;;;;26.90;20.17;;;8.60;99.90;;;;;;5114972;28;20453;-68
2021/11/14 01:41:28;;;;;;;24.13;19.07;;;8.60;99.90;;;;;;5114934;28;20452;-68
2021/11/14 01:43:58;;;;;;;25.53;19.30;;;8.50;99.90;;;;;;5114722;28;20905;-68
2021/11/14 01:46:25;;;;;;;23.90;19.00;;;8.50;99.90;;;;;;5114929;28;20787;-68
2021/11/14 01:48:53;;;;;;;24.23;17.30;;;8.50;99.90;;;;;;5114934;28;20463;-68
2021/11/14 01:51:20;;;;;;;25.57;18.40;;;8.50;99.90;;;;;;5114685;28;20475;-68
2021/11/14 01:53:48;;;;;;;28.73;20.50;;;8.50;99.90;;;;;;5114919;28;20488;-68
2021/11/14 01:56:18;;;;;;;25.80;18.67;;;8.50;99.90;;;;;;5114975;28;20460;-68
2021/11/14 01:58:46;;;;;;;27.30;20.77;;;8.50;99.90;;;;;;5114966;28;20535;-68
2021/11/14 02:01:17;;;;;;;27.40;19.10;;;8.60;99.90;;;;;;5114791;28;20786;-68
2021/11/14 02:03:47;;;;;;;25.00;18.87;;;8.60;99.90;;;;;;5114559;28;20452;-68
2021/11/14 02:06:14;;;;;;;24.23;18.80;;;8.50;99.90;;;;;;5115551;28;20787;-68
2021/11/14 02:08:44;;;;;;;28.90;19.17;;;8.60;99.90;;;;;;5114740;28;20463;-68
2021/11/14 02:11:14;;;;;;;28.00;19.60;;;8.60;99.90;;;;;;5114168;28;20833;-68
2021/11/14 02:13:50;;;;;;;27.33;20.30;;;8.50;99.90;;;;;;5114873;28;20492;-68
2021/11/14 02:16:23;;;;;;;26.37;18.90;;;8.50;99.90;;;;;;5114784;28;20455;-68
2021/11/14 02:18:50;;;;;;;28.50;20.70;;;8.50;99.90;;;;;;5114567;28;20452;-68
2021/11/14 02:21:18;;;;;;;29.43;20.33;;;8.50;99.90;;;;;;5115108;28;20469;-68
2021/11/14 02:23:45;;;;;;;27.33;20.60;;;8.50;99.90;;;;;;5114841;28;20475;-68
2021/11/14 02:26:13;;;;;;;25.80;20.83;;;8.60;99.90;;;;;;5114650;28;21015;-68
2021/11/14 02:28:41;;;;;;;25.10;19.30;;;8.60;99.90;;;;;;5114558;28;20463;-68
2021/11/14 02:31:08;;;;;;;30.07;21.10;;;8.60;99.90;;;;;;5114158;28;20998;-68
2021/11/14 02:33:35;;;;;;;30.70;21.30;;;8.60;99.90;;;;;;5114276;28;20457;-68
2021/11/14 02:36:09;;;;;;;28.63;20.90;;;8.60;99.90;;;;;;5114086;28;20459;-68
2021/11/14 02:38:43;;;;;;;26.63;20.37;;;8.60;99.90;;;;;;5114798;28;20441;-68
2021/11/14 02:41:11;;;;;;;25.10;19.87;;;8.60;99.90;;;;;;5114991;28;20444;-68
2021/11/14 02:43:43;;;;;;;30.10;20.87;;;8.60;99.90;;;;;;5114808;28;20828;-68
2021/11/14 02:46:10;;;;;;;26.70;20.20;;;8.50;99.90;;;;;;5117129;28;20491;-68
2021/11/14 02:48:38;;;;;;;27.23;21.60;;;8.50;99.90;;;;;;5118369;28;20460;-68
2021/11/14 02:51:08;;;;;;;29.30;20.27;;;8.50;99.90;;;;;;5118143;28;20531;-68
2021/11/14 02:53:35;;;;;;;31.83;20.73;;;8.50;99.90;;;;;;5118113;28;20463;-68
2021/11/14 02:56:04;;;;;;;32.20;21.33;;;8.50;99.90;;;;;;5117893;28;20463;-68
2021/11/14 02:58:32;;;;;;;27.37;20.83;;;8.50;99.90;;;;;;5117739;27;20469;-68
2021/11/14 03:01:03;;;;;;;26.20;20.40;;;8.50;99.90;;;;;;5117559;28;20457;-68
2021/11/14 03:03:30;;;;;;;28.30;20.10;;;8.40;99.90;;;;;;5118047;28;20439;-68
2021/11/14 03:05:57;;;;;;;26.30;18.93;;;8.50;99.90;;;;;;5117852;28;20456;-68
2021/11/14 03:08:24;;;;;;;26.30;19.07;;;8.40;99.90;;;;;;5117719;28;20464;-68
2021/11/14 03:10:51;;;;;;;26.50;19.57;;;8.40;99.90;;;;;;5117551;28;20488;-68
2021/11/14 03:13:21;;;;;;;26.07;19.13;;;8.40;99.90;;;;;;5118198;27;20517;-68
2021/11/14 03:15:51;;;;;;;27.13;18.67;;;8.40;99.90;;;;;;5117630;27;20437;-68
2021/11/14 03:18:19;;;;;;;25.07;18.60;;;8.40;99.90;;;;;;5116955;28;20945;-68
2021/11/14 03:20:48;;;;;;;26.77;18.70;;;8.50;99.90;;;;;;5117327;28;20480;-68
2021/11/14 03:23:18;;;;;;;28.13;20.43;;;8.50;99.90;;;;;;5117154;28;20464;-68
2021/11/14 03:25:46;;;;;;;26.47;19.40;;;8.50;99.90;;;;;;5117234;28;20884;-68
2021/11/14 03:28:14;;;;;;;24.70;18.70;;;8.50;99.90;;;;;;5117223;27;20470;-68
2021/11/14 03:30:42;;;;;;;26.13;19.10;;;8.60;99.90;;;;;;5116537;28;20477;-68
2021/11/14 03:33:15;;;;;;;27.33;19.20;;;8.60;99.90;;;;;;5117312;28;20456;-68
2021/11/14 03:35:43;;;;;;;28.73;19.30;;;8.60;99.90;;;;;;5117309;27;20441;-68
2021/11/14 03:38:12;;;;;;;24.93;18.40;;;8.60;99.90;;;;;;5117139;28;20456;-68
2021/11/14 03:40:42;;;;;;;25.00;18.80;;;8.60;99.90;;;;;;5116968;28;20460;-68
2021/11/14 03:43:09;;;;;;;23.27;17.30;;;8.60;99.90;;;;;;5116906;28;20459;-68
2021/11/14 03:45:37;;;;;;;25.23;18.97;;;8.60;99.90;;;;;;5117287;28;20460;-68
2021/11/14 03:48:06;;;;;;;25.30;17.23;;;8.60;99.90;;;;;;5116610;28;20457;-68
2021/11/14 03:50:36;;;;;;;22.00;16.33;;;8.60;99.90;;;;;;5116582;28;20484;-68
2021/11/14 03:53:04;;;;;;;24.73;17.07;;;8.60;99.90;;;;;;5116417;28;20449;-68
2021/11/14 03:55:33;;;;;;;23.53;16.87;;;8.50;99.90;;;;;;5116845;28;20464;-68
2021/11/14 03:58:00;;;;;;;26.17;18.53;;;8.50;99.90;;;;;;5116608;28;20462;-68
2021/11/14 04:00:29;;;;;;;26.60;18.13;;;8.50;99.90;;;;;;5116269;28;20453;-68
2021/11/14 04:02:57;;;;;;;24.73;18.10;;;8.50;99.90;;;;;;5116575;28;20517;-68
2021/11/14 04:05:29;;;;;;;24.90;16.33;;;8.50;99.90;;;;;;5116462;28;20457;-68
2021/11/14 04:07:55;;;;;;;23.70;16.90;;;8.50;99.90;;;;;;5116519;28;20836;-68
2021/11/14 04:10:22;;;;;;;24.67;17.57;;;8.50;99.90;;;;;;5115891;28;20921;-68
2021/11/14 04:12:49;;;;;;;25.80;17.70;;;8.40;99.90;;;;;;5116406;28;20461;-68
2021/11/14 04:15:17;;;;;;;22.80;16.60;;;8.40;99.90;;;;;;5116404;28;20935;-68
2021/11/14 04:17:44;;;;;;;26.10;17.37;;;8.40;99.90;;;;;;5116228;28;20462;-68
2021/11/14 04:20:13;;;;;;;25.43;17.37;;;8.30;99.90;;;;;;5116723;28;20471;-68
2021/11/14 04:22:42;;;;;;;22.40;16.67;;;8.30;99.90;;;;;;5115943;28;20463;-68
2021/11/14 04:25:10;;;;;;;22.40;15.70;;;8.20;99.90;;;;;;5116647;28;20532;-68
2021/11/14 04:27:39;;;;;;;24.33;17.30;;;8.20;99.90;;;;;;5115575;28;20485;-68
2021/11/14 04:30:10;;;;;;;24.27;15.87;;;8.20;99.90;;;;;;5115794;28;20508;-68
2021/11/14 04:32:37;;;;;;;27.00;17.00;;;8.10;99.90;;;;;;5116178;28;20476;-68
2021/11/14 04:35:05;;;;;;;24.47;17.50;;;8.10;99.90;;;;;;5115812;28;20461;-68
2021/11/14 04:37:31;;;;;;;24.47;16.43;;;8.10;99.90;;;;;;5115903;28;20507;-68
2021/11/14 04:39:59;;;;;;;24.53;18.07;;;8.00;99.90;;;;;;5115771;28;20463;-68
2021/11/14 04:42:26;;;;;;;25.27;16.27;;;8.00;99.90;;;;;;5116284;28;20460;-68
2021/11/14 04:44:53;;;;;;;25.53;17.50;;;8.00;99.90;;;;;;5115892;28;20524;-68
2021/11/14 04:47:22;;;;;;;23.03;16.60;;;8.00;99.90;;;;;;5115662;28;20464;-68
2021/11/14 04:49:49;;;;;;;23.70;16.07;;;7.90;99.90;;;;;;5115516;28;20912;-68
2021/11/14 04:52:19;;;;;;;27.47;17.83;;;7.90;99.90;;;;;;5116613;28;20480;-68
2021/11/14 04:54:45;;;;;;;25.77;17.37;;;7.90;99.90;;;;;;5115948;28;20460;-68
2021/11/14 04:57:15;;;;;;;25.77;16.93;;;7.90;99.90;;;;;;5115110;28;21052;-68
2021/11/14 04:59:41;;;;;;;30.43;18.10;;;7.90;99.90;;;;;;5115292;28;20554;-68
2021/11/14 05:02:08;;;;;;;25.77;17.43;;;7.80;99.90;;;;;;5115443;28;20481;-68
2021/11/14 05:04:35;;;;;;;24.43;15.60;;;7.80;99.90;;;;;;5115557;28;20464;-68
2021/11/14 05:07:01;;;;;;;27.33;16.97;;;7.80;99.90;;;;;;5115345;28;20471;-68
2021/11/14 05:09:28;;;;;;;23.33;16.87;;;7.80;99.90;;;;;;5114513;28;20946;-71
2021/11/14 05:11:55;;;;;;;25.50;16.90;;;7.80;99.90;;;;;;5115410;28;20479;-68
2021/11/14 05:14:23;;;;;;;25.67;17.27;;;7.70;99.90;;;;;;5115296;28;20753;-68
2021/11/14 05:16:50;;;;;;;28.57;19.40;;;7.70;99.90;;;;;;5115291;28;20465;-68
2021/11/14 05:19:16;;;;;;;28.93;17.40;;;7.70;99.90;;;;;;5115516;28;20467;-68
2021/11/14 05:21:43;;;;;;;28.53;17.70;;;7.60;99.90;;;;;;5114924;28;20474;-68
2021/11/14 05:24:10;;;;;;;26.70;16.03;;;7.60;99.90;;;;;;5115030;28;20454;-68
2021/11/14 05:26:37;;;;;;;27.10;18.33;;;7.60;99.90;;;;;;5115025;28;20464;-68
2021/11/14 05:29:04;;;;;;;32.60;20.10;;;7.60;99.90;;;;;;5115137;28;20911;-68
2021/11/14 05:31:32;;;;;;;25.90;16.33;;;7.50;99.90;;;;;;5115022;28;20480;-68
2021/11/14 05:34:01;;;;;;;27.93;18.60;;;7.50;99.90;;;;;;5114940;28;20518;-68
2021/11/14 05:36:28;;;;;;;23.87;17.50;;;7.50;99.90;;;;;;5115297;28;20535;-67
2021/11/14 05:38:57;;;;;;;28.60;17.50;;;7.40;99.90;;;;;;5114856;28;20466;-67
2021/11/14 05:41:24;;;;;;;25.70;16.90;;;7.40;99.90;;;;;;5115072;28;20454;-69
2021/11/14 05:43:51;;;;;;;29.77;17.70;;;7.40;99.90;;;;;;5114732;28;20460;-67
2021/11/14 05:46:17;;;;;;;29.40;17.33;;;7.40;99.90;;;;;;5115074;28;20454;-67
2021/11/14 05:48:45;;;;;;;28.30;18.67;;;7.30;99.90;;;;;;5114666;28;20564;-68
2021/11/14 05:51:12;;;;;;;26.07;17.73;;;7.20;99.90;;;;;;5114989;28;20900;-67
2021/11/14 05:53:41;;;;;;;26.57;18.13;;;7.20;99.90;;;;;;5114852;28;20471;-67
2021/11/14 05:56:07;;;;;;;28.57;18.33;;;7.30;99.90;;;;;;5114556;28;20461;-68
2021/11/14 05:58:39;;;;;;;24.47;16.83;;;7.20;99.90;;;;;;5115015;28;20521;-68
2021/11/14 06:01:13;;;;;;;25.67;17.17;;;7.20;99.90;;;;;;5114780;28;20439;-67
2021/11/14 06:03:43;;;;;;;27.17;17.83;;;7.20;99.90;;;;;;5114906;28;20442;-67
2021/11/14 06:06:11;;;;;;;27.97;18.00;;;7.20;99.90;;;;;;5114949;28;20467;-68
2021/11/14 06:08:38;;;;;;;27.33;17.90;;;7.10;99.90;;;;;;5114791;28;20515;-68
2021/11/14 06:11:05;;;;;;;28.87;19.40;;;7.00;99.90;;;;;;5114409;28;20783;-68
2021/11/14 06:13:33;;;;;;;27.77;19.03;;;7.00;99.90;;;;;;5114725;28;20485;-68
2021/11/14 06:16:00;;;;;;;29.57;18.30;;;6.90;99.90;;;;;;5114464;28;20462;-68
2021/11/14 06:18:27;;;;;;;23.77;16.30;;;6.80;99.90;;;;;;5114647;28;20459;-68
2021/11/14 06:20:55;;;;;;;27.73;17.97;;;6.80;99.90;;;;;;5115809;28;20534;-68
2021/11/14 06:23:23;;;;;;;32.67;19.70;;;6.70;99.90;;;;;;5118428;28;20457;-67
2021/11/14 06:25:50;;;;;;;23.30;16.83;;;6.60;99.90;;;;;;5118535;28;20796;-68
2021/11/14 06:28:17;;;;;;;30.97;18.60;;;6.50;99.90;;;;;;5118495;28;20762;-68
2021/11/14 06:30:43;;;;;;;30.10;17.83;;;6.50;99.90;;;;;;5118759;28;20457;-68
2021/11/14 06:33:10;;;;;;;30.70;19.57;;;6.40;99.90;;;;;;5118108;28;20488;-68
2021/11/14 06:35:39;;;;;;;28.40;18.07;;;6.40;99.90;;;;;;5118307;28;20457;-67
2021/11/14 06:38:06;;;;;;;28.60;18.53;;;6.40;99.90;;;;;;5118311;28;20466;-67
2021/11/14 06:40:34;;;;;;;29.63;18.47;;;6.30;99.90;;;;;;5118120;28;20468;-68
2021/11/14 06:43:01;;;;;;;30.33;17.00;;;6.30;99.90;;;;;;5118240;28;20449;-68
2021/11/14 06:45:29;;;;;;;32.80;18.73;;;6.20;99.90;;;;;;5117821;28;20457;-67
2021/11/14 06:47:56;;;;;;;27.27;18.70;;;6.20;99.90;;;;;;5118089;28;20515;-68
2021/11/14 06:50:23;;;;;;;31.30;18.03;;;6.30;99.90;;;;;;5117772;28;20522;-67
2021/11/14 06:52:50;;;;;;;29.43;17.73;;;6.30;99.90;;;;;;5117593;28;20971;-68
2021/11/14 06:55:20;;;;;;;34.70;19.63;;;6.20;99.90;;;;;;5118136;28;20468;-67
2021/11/14 06:57:49;;;;;;;27.77;19.10;;;6.20;99.90;;;;;;5117615;27;20518;-67
2021/11/14 07:00:18;;;;;;;31.83;18.87;;;6.20;99.90;;;;;;5118050;28;20782;-67
2021/11/14 07:02:44;;;;;;;29.63;19.10;;;6.20;99.90;;;;;;5117737;27;20463;-67
2021/11/14 07:05:13;;;;;;;29.80;18.53;;;6.20;99.90;;;;;;5117693;28;20461;-67
2021/11/14 07:07:41;;;;;;;29.43;18.90;;;6.20;99.90;;;;;;5118009;28;20460;-67
2021/11/14 07:10:09;;;;;;;28.93;19.07;;;6.20;99.90;;;;;;5117880;28;20457;-67
2021/11/14 07:12:37;;;;;;;32.93;19.50;;;6.20;99.90;;;;;;5117251;28;20485;-67
2021/11/14 07:15:06;;;;;;;30.77;20.20;;;6.20;99.90;;;;;;5117242;28;20461;-68
2021/11/14 07:17:35;;;;;;;33.73;18.87;;;6.10;99.90;;;;;;5117163;28;20454;-68
2021/11/14 07:20:01;;;;;;;32.57;18.87;;;6.10;99.90;;;;;;5117628;28;20823;-67
2021/11/14 07:22:28;;;;;;;30.07;18.30;;;6.10;99.90;;;;;;5117052;28;20568;-67
2021/11/14 07:24:55;;;;;;;30.00;17.73;;;6.10;99.90;;;;;;5117414;28;20463;-67
2021/11/14 07:27:25;;;;;;;33.60;19.83;;;6.10;99.90;;;;;;5117289;27;20453;-67
2021/11/14 07:29:51;;;;;;;33.20;18.70;;;6.10;99.90;;;;;;5117353;28;20458;-67
2021/11/14 07:32:22;;;;;;;31.33;17.93;;;6.10;99.90;;;;;;5116328;28;20484;-67
2021/11/14 07:34:49;;;;;;;32.60;19.90;;;6.20;99.90;;;;;;5117231;28;20450;-67
2021/11/14 07:37:16;;;;;;;33.53;20.03;;;6.20;99.90;;;;;;5117207;28;20826;-67
2021/11/14 07:39:45;;;;;;;33.87;20.37;;;6.20;99.90;;;;;;5117190;28;20458;-67
2021/11/14 07:42:12;;;;;;;33.13;19.73;;;6.20;99.90;;;;;;5117010;28;20461;-68
2021/11/14 07:44:38;;;;;;;31.40;19.93;;;6.20;99.90;;;;;;5116875;28;20464;-69
2021/11/14 07:47:05;;;;;;;36.03;20.07;;;6.30;99.90;;;;;;5116706;28;20481;-67
2021/11/14 07:49:34;;;;;;;30.10;18.20;;;6.30;99.90;;;;;;5116937;28;20467;-67
2021/11/14 07:52:00;;;;;;;32.20;19.13;;;6.40;99.90;;;;;;5117038;28;20545;-68
2021/11/14 07:54:27;;;;;;;29.33;18.97;;;6.50;99.90;;;;;;5117005;28;20518;-68
2021/11/14 07:56:58;;;;;;;36.63;20.40;;;6.50;99.90;;;;;;5116641;28;20465;-68
2021/11/14 07:59:24;;;;;;;40.87;22.83;;;6.60;99.90;;;;;;5116442;28;20463;-68
2021/11/14 08:01:51;;;;;;;34.87;20.77;;;6.60;99.90;;;;;;5116527;28;20494;-67
2021/11/14 08:04:18;;;;;;;35.83;19.93;;;6.60;99.90;;;;;;5116534;28;20553;-67
2021/11/14 08:06:46;;;;;;;38.30;20.77;;;6.60;99.90;;;;;;5116731;28;20487;-67
2021/11/14 08:09:14;;;;;;;36.87;20.60;;;6.60;99.90;;;;;;5116334;28;20827;-67
2021/11/14 08:11:41;;;;;;;36.70;20.47;;;6.70;99.90;;;;;;5116441;28;20838;-67
2021/11/14 08:14:08;;;;;;;34.43;20.20;;;6.80;99.90;;;;;;5116099;28;20469;-68
2021/11/14 08:16:35;;;;;;;35.50;20.77;;;6.90;99.90;;;;;;5115690;28;20783;-68
2021/11/14 08:19:01;;;;;;;35.87;20.77;;;6.90;99.90;;;;;;5116308;28;20454;-69
2021/11/14 08:21:28;;;;;;;30.37;19.60;;;6.90;99.90;;;;;;5115964;28;20808;-68
2021/11/14 08:23:56;;;;;;;31.87;21.03;;;7.00;99.90;;;;;;5116194;28;20759;-69
2021/11/14 08:26:23;;;;;;;38.50;21.63;;;7.00;99.90;;;;;;5115763;28;20914;-68
2021/11/14 08:28:49;;;;;;;41.13;22.50;;;7.20;99.90;;;;;;5116199;28;20494;-69
2021/11/14 08:31:20;;;;;;;39.67;22.70;;;7.20;99.90;;;;;;5116169;28;20457;-68
2021/11/14 08:33:47;;;;;;;38.10;21.70;;;7.20;99.90;;;;;;5115837;28;20468;-67
2021/11/14 08:36:14;;;;;;;41.70;22.50;;;7.20;99.90;;;;;;5115857;28;20455;-67
2021/11/14 08:38:41;;;;;;;39.50;22.50;;;7.20;99.90;;;;;;5115781;28;20485;-67
2021/11/14 08:41:09;;;;;;;37.57;22.43;;;7.30;99.90;;;;;;5115730;28;20560;-67
2021/11/14 08:43:37;;;;;;;41.63;25.60;;;7.30;99.90;;;;;;5114950;28;20467;-67
2021/11/14 08:46:04;;;;;;;38.30;23.67;;;7.40;99.90;;;;;;5115683;28;20940;-68
2021/11/14 08:48:31;;;;;;;45.87;24.57;;;7.40;99.90;;;;;;5115586;28;20461;-68
2021/11/14 08:50:58;;;;;;;40.73;24.40;;;7.40;99.90;;;;;;5115834;28;20782;-68
2021/11/14 08:53:25;;;;;;;43.70;24.57;;;7.40;99.90;;;;;;5115833;28;20479;-67
2021/11/14 08:55:53;;;;;;;45.80;24.67;;;7.50;99.90;;;;;;5115930;28;20486;-67
2021/11/14 08:58:21;;;;;;;49.27;26.17;;;7.50;99.90;;;;;;5115426;28;20455;-67
2021/11/14 09:00:47;;;;;;;50.80;26.40;;;7.50;99.90;;;;;;5115185;27;20462;-68
2021/11/14 09:03:14;;;;;;;50.03;27.30;;;7.50;99.90;;;;;;5115387;28;20452;-68
2021/11/14 09:05:43;;;;;;;51.70;28.90;;;7.50;99.90;;;;;;5115307;28;20461;-68
2021/11/14 09:08:10;;;;;;;47.10;26.53;;;7.50;99.90;;;;;;5114583;28;20947;-68
2021/11/14 09:10:44;;;;;;;50.50;28.60;;;7.50;99.90;;;;;;5115305;28;20838;-68
2021/11/14 09:13:11;;;;;;;55.20;28.80;;;7.50;99.90;;;;;;5115237;28;20562;-68
2021/11/14 09:15:39;;;;;;;47.50;25.83;;;7.50;99.90;;;;;;5115523;28;20455;-68
2021/11/14 09:18:06;;;;;;;48.90;26.57;;;7.50;99.90;;;;;;5115320;28;20462;-68
2021/11/14 09:20:32;;;;;;;49.00;26.37;;;7.40;99.90;;;;;;5115408;28;20482;-70
2021/11/14 09:22:59;;;;;;;52.37;29.07;;;7.50;99.90;;;;;;5115041;28;20439;-69
2021/11/14 09:25:27;;;;;;;51.77;28.03;;;7.60;99.90;;;;;;5115065;28;20465;-67
2021/11/14 09:27:54;;;;;;;55.10;28.83;;;7.60;99.90;;;;;;5114803;28;20485;-67
2021/11/14 09:30:22;;;;;;;52.23;28.47;;;7.60;99.90;;;;;;5115144;28;20537;-67
2021/11/14 09:32:50;;;;;;;59.77;30.33;;;7.60;99.90;;;;;;5114906;28;20487;-69
2021/11/14 09:35:17;;;;;;;65.90;31.80;;;7.60;99.90;;;;;;5114956;28;20484;-69
2021/11/14 09:37:44;;;;;;;54.93;31.13;;;7.60;99.90;;;;;;5115207;28;20499;-67
2021/11/14 09:40:11;;;;;;;56.77;30.27;;;7.70;99.90;;;;;;5114983;28;20457;-67
2021/11/14 09:42:38;;;;;;;58.03;30.73;;;7.70;99.90;;;;;;5114959;28;20462;-68
2021/11/14 09:45:08;;;;;;;60.37;31.57;;;7.70;99.90;;;;;;5114825;28;20456;-68
2021/11/14 09:47:34;;;;;;;49.07;26.87;;;7.80;99.90;;;;;;5114837;28;20786;-68
2021/11/14 09:50:03;;;;;;;47.20;28.07;;;8.00;99.90;;;;;;5114890;28;20460;-67
2021/11/14 09:52:30;;;;;;;55.80;30.27;;;8.20;99.90;;;;;;5114857;28;20557;-68
2021/11/14 09:54:58;;;;;;;52.23;28.80;;;8.40;99.90;;;;;;5116624;28;20467;-68
2021/11/14 09:57:29;;;;;;;61.07;30.20;;;8.50;99.90;;;;;;5118893;28;20452;-68
2021/11/14 09:59:56;;;;;;;52.93;28.50;;;8.60;99.90;;;;;;5118781;28;20457;-68
2021/11/14 10:02:23;;;;;;;52.70;29.47;;;8.70;99.90;;;;;;5118776;28;20453;-69
2021/11/14 10:04:50;;;;;;;52.20;29.17;;;8.80;99.90;;;;;;5119019;28;20453;-67
2021/11/14 10:07:19;;;;;;;51.50;29.80;;;8.90;99.90;;;;;;5118998;28;20831;-67
2021/11/14 10:09:49;;;;;;;55.57;30.30;;;8.90;99.90;;;;;;5119103;28;20822;-68
2021/11/14 10:12:19;;;;;;;52.03;29.53;;;8.90;99.90;;;;;;5118999;28;20508;-68
2021/11/14 10:14:51;;;;;;;52.63;29.80;;;9.00;99.90;;;;;;5118767;28;20467;-67
2021/11/14 10:17:24;;;;;;;52.27;29.87;;;9.10;99.90;;;;;;5118641;28;20875;-69
2021/11/14 10:20:10;;;;;;;53.60;30.77;;;9.20;99.90;;;;;;5118798;27;20843;-67
2021/11/14 10:22:41;;;;;;;52.00;28.80;;;9.10;99.90;;;;;;5118463;28;20425;-68
2021/11/14 10:25:10;;;;;;;51.57;28.57;;;9.10;99.90;;;;;;5118869;28;20439;-69
2021/11/14 10:27:37;;;;;;;57.50;31.80;;;9.10;99.90;;;;;;5118794;28;20460;-68
2021/11/14 10:30:05;;;;;;;52.23;29.80;;;9.00;99.90;;;;;;5118335;28;20453;-68
2021/11/14 10:32:32;;;;;;;53.93;30.57;;;9.00;99.90;;;;;;5118542;28;20489;-68
2021/11/14 10:35:02;;;;;;;50.97;28.53;;;9.00;99.90;;;;;;5118924;28;20453;-68
2021/11/14 10:37:29;;;;;;;52.70;30.63;;;9.00;99.90;;;;;;5118369;28;20456;-68
2021/11/14 10:39:59;;;;;;;54.63;30.60;;;9.00;99.90;;;;;;5118379;28;20514;-68
2021/11/14 10:42:28;;;;;;;57.37;30.97;;;9.00;99.90;;;;;;5118386;28;20445;-69
2021/11/14 10:44:56;;;;;;;59.80;32.17;;;9.00;99.90;;;;;;5118271;28;20460;-68
2021/11/14 10:47:24;;;;;;;56.67;30.47;;;9.00;99.90;;;;;;5118197;28;20468;-68
2021/11/14 10:49:53;;;;;;;59.00;32.60;;;9.00;99.90;;;;;;5117571;28;20455;-68
2021/11/14 10:52:20;;;;;;;54.20;31.57;;;9.00;99.90;;;;;;5117964;28;20827;-68
2021/11/14 10:54:52;;;;;;;59.50;31.37;;;9.10;99.90;;;;;;5117387;28;20465;-68
2021/11/14 10:57:20;;;;;;;57.20;31.87;;;9.10;99.90;;;;;;5117733;28;20452;-68
2021/11/14 10:59:50;;;;;;;57.33;31.03;;;9.20;99.90;;;;;;5117267;27;20933;-68
2021/11/14 11:02:19;;;;;;;53.47;30.27;;;9.20;99.90;;;;;;5117973;28;20447;-68
2021/11/14 11:04:46;;;;;;;56.47;31.00;;;9.20;99.90;;;;;;5118086;28;20467;-67
2021/11/14 11:07:15;;;;;;;53.50;31.80;;;9.20;99.90;;;;;;5117088;28;20509;-68
2021/11/14 11:09:43;;;;;;;63.20;33.63;;;9.20;99.90;;;;;;5117483;27;20464;-69
2021/11/14 11:12:19;;;;;;;64.63;34.50;;;9.20;99.90;;;;;;5117885;28;20453;-68
2021/11/14 11:14:59;;;;;;;60.60;31.63;;;9.20;99.90;;;;;;5118561;27;20476;-68
2021/11/14 11:17:28;;;;;;;65.53;33.73;;;9.20;99.90;;;;;;5117861;28;20440;-68
2021/11/14 11:19:56;;;;;;;54.93;32.10;;;9.20;99.90;;;;;;5117652;28;20452;-68
2021/11/14 11:22:25;;;;;;;59.57;34.50;;;9.20;99.90;;;;;;5117504;28;20484;-69
2021/11/14 11:24:54;;;;;;;64.27;34.47;;;9.10;99.90;;;;;;5117189;27;20465;-69
2021/11/14 11:27:21;;;;;;;60.60;33.90;;;9.10;99.90;;;;;;5117604;28;20453;-68
2021/11/14 11:29:49;;;;;;;65.03;35.70;;;9.10;99.90;;;;;;5117473;28;20518;-68
2021/11/14 11:32:19;;;;;;;64.63;35.03;;;9.10;99.90;;;;;;5117195;28;20463;-68
2021/11/14 11:34:46;;;;;;;68.27;36.53;;;9.10;99.90;;;;;;5116732;28;20567;-68
2021/11/14 11:37:14;;;;;;;61.07;34.77;;;9.10;99.90;;;;;;5116889;28;20928;-68
2021/11/14 11:39:41;;;;;;;62.20;33.77;;;9.10;99.90;;;;;;5116613;27;20461;-68
2021/11/14 11:42:09;;;;;;;63.17;34.50;;;9.20;99.90;;;;;;5117258;28;20514;-68
2021/11/14 11:44:36;;;;;;;60.00;35.37;;;9.20;99.90;;;;;;5117024;28;20809;-68
2021/11/14 11:47:10;;;;;;;64.43;35.23;;;9.20;99.90;;;;;;5117215;28;20750;-68
2021/11/14 11:49:43;;;;;;;66.10;36.20;;;9.20;99.90;;;;;;5117100;28;20449;-68
2021/11/14 11:52:17;;;;;;;70.30;35.67;;;9.20;99.90;;;;;;5116954;28;20448;-68
2021/11/14 11:54:45;;;;;;;56.43;33.50;;;9.20;99.90;;;;;;5117016;28;20461;-68
2021/11/14 11:57:13;;;;;;;60.57;36.30;;;9.20;99.90;;;;;;5116071;28;20471;-68
2021/11/14 11:59:43;;;;;;;64.00;35.93;;;9.20;99.90;;;;;;5116270;28;20457;-68
2021/11/14 12:02:11;;;;;;;70.47;36.27;;;9.20;99.90;;;;;;5116199;28;20520;-69
2021/11/14 12:04:42;;;;;;;60.50;33.97;;;9.20;99.90;;;;;;5117514;28;20453;-69
2021/11/14 12:07:12;;;;;;;68.23;35.10;;;9.10;99.90;;;;;;5119865;28;20884;-69
2021/11/14 12:09:43;;;;;;;64.67;36.07;;;9.10;99.90;;;;;;5119265;28;20460;-69
2021/11/14 12:12:25;;;;;;;64.43;36.03;;;9.10;99.90;;;;;;5119768;28;20454;-69
2021/11/14 12:15:13;;;;;;;63.00;35.90;;;9.10;99.90;;;;;;5119358;28;20499;-69
2021/11/14 12:17:48;;;;;;;61.37;34.17;;;9.10;99.90;;;;;;5119968;28;20488;-68
2021/11/14 12:20:18;;;;;;;66.17;35.20;;;9.10;99.90;;;;;;5119480;28;20437;-69
2021/11/14 12:22:53;;;;;;;64.17;34.87;;;9.10;99.90;;;;;;5119652;28;20452;-67
2021/11/14 12:25:28;;;;;;;63.63;34.60;;;9.10;99.90;;;;;;5118606;28;20464;-68
2021/11/14 12:28:09;;;;;;;69.23;37.20;;;9.00;99.90;;;;;;5119262;28;20543;-68
2021/11/14 12:30:41;;;;;;;67.47;35.50;;;9.00;99.90;;;;;;5118849;28;20995;-68
2021/11/14 12:33:20;;;;;;;76.40;39.83;;;8.90;99.90;;;;;;5119204;28;20465;-68
2021/11/14 12:35:51;;;;;;;76.87;37.77;;;8.90;99.90;;;;;;5118940;28;20449;-68
2021/11/14 12:38:24;;;;;;;67.87;36.77;;;8.90;99.90;;;;;;5119401;28;20532;-69
2021/11/14 12:40:57;;;;;;;64.90;34.03;;;8.90;99.90;;;;;;5118717;28;20881;-69